Time;durP1;ratioP1;P1;durP2;ratioP2;P2;SDS_P1;SDS_P2;PMS_P1;PMS_P2;Temp;Humidity;BMP_temperature;BMP_pressure;BME280_temperature;BME280_humidity;BME280_pressure;Samples;Min_cycle;Max_cycle;Signal;HPM_P1;HPM_P2
2021/04/07 00:00:15;;;;;;;14.98;4.43;;;;;;;;;;5077022;28;20237;-72
2021/04/07 00:02:41;;;;;;;7.60;4.03;;;;;;;;;;5077521;28;20105;-72
2021/04/07 00:05:09;;;;;;;11.05;4.38;;;;;;;;;;5077618;28;20017;-72
2021/04/07 00:07:36;;;;;;;7.30;4.53;;;;;;;;;;5077213;28;20024;-73
2021/04/07 00:10:04;;;;;;;13.38;5.70;;;;;;;;;;5077845;28;20020;-73
2021/04/07 00:12:30;;;;;;;15.73;6.38;;;;;;;;;;5075861;28;20539;-69
2021/04/07 00:14:57;;;;;;;12.20;5.40;;;;;;;;;;5076956;28;20017;-75
2021/04/07 00:17:23;;;;;;;13.25;6.97;;;;;;;;;;5075781;28;20016;-72
2021/04/07 00:19:49;;;;;;;10.15;4.60;;;;;;;;;;5077354;28;20027;-72
2021/04/07 00:22:15;;;;;;;9.93;5.32;;;;;;;;;;5078814;28;20019;-72
2021/04/07 00:24:41;;;;;;;8.98;3.67;;;;;;;;;;5097310;28;20022;-72
2021/04/07 00:27:09;;;;;;;14.93;4.53;;;;;;;;;;5078796;28;20060;-74
2021/04/07 00:29:36;;;;;;;9.38;4.65;;;;;;;;;;5078961;28;20020;-73
2021/04/07 00:32:02;;;;;;;7.45;3.50;;;;;;;;;;5097215;28;20012;-73
2021/04/07 00:34:28;;;;;;;9.75;4.63;;;;;;;;;;5096781;28;20024;-72
2021/04/07 00:36:54;;;;;;;8.45;2.75;;;;;;;;;;5097327;28;20027;-72
2021/04/07 00:39:20;;;;;;;5.82;3.40;;;;;;;;;;5079377;28;20023;-72
2021/04/07 00:41:46;;;;;;;7.40;3.58;;;;;;;;;;5097165;28;20055;-70
2021/04/07 00:44:12;;;;;;;8.27;3.33;;;;;;;;;;5078794;28;20061;-70
2021/04/07 00:46:38;;;;;;;7.07;3.28;;;;;;;;;;5078719;28;20020;-72
2021/04/07 00:49:05;;;;;;;5.97;2.25;;;;;;;;;;5096611;28;20091;-71
2021/04/07 00:51:31;;;;;;;5.28;2.80;;;;;;;;;;5078562;28;20032;-72
2021/04/07 00:53:57;;;;;;;8.25;3.08;;;;;;;;;;5078609;28;20020;-73
2021/04/07 00:56:24;;;;;;;6.07;3.13;;;;;;;;;;5078267;28;20088;-72
2021/04/07 00:58:51;;;;;;;7.72;3.78;;;;;;;;;;5078423;28;20016;-72
2021/04/07 01:01:17;;;;;;;6.22;3.28;;;;;;;;;;5077751;28;20020;-73
2021/04/07 01:03:43;;;;;;;8.77;3.80;;;;;;;;;;5096484;28;20024;-73
2021/04/07 01:06:09;;;;;;;5.65;2.90;;;;;;;;;;5078245;28;20399;-72
2021/04/07 01:08:36;;;;;;;9.63;2.97;;;;;;;;;;5096463;28;20445;-72
2021/04/07 01:11:02;;;;;;;8.55;3.25;;;;;;;;;;5096045;28;20020;-71
2021/04/07 01:13:28;;;;;;;6.88;3.03;;;;;;;;;;5096125;28;20026;-74
2021/04/07 01:15:54;;;;;;;5.43;2.45;;;;;;;;;;5078112;28;20020;-74
2021/04/07 01:18:20;;;;;;;6.60;2.75;;;;;;;;;;5097848;28;20130;-81
2021/04/07 01:20:46;;;;;;;11.27;3.38;;;;;;;;;;5098249;28;20036;-78
2021/04/07 01:23:13;;;;;;;4.43;1.77;;;;;;;;;;5079144;28;20016;-71
2021/04/07 01:25:39;;;;;;;6.68;2.78;;;;;;;;;;5079944;28;20093;-73
2021/04/07 01:28:06;;;;;;;4.05;1.80;;;;;;;;;;5097115;28;20105;-70
2021/04/07 01:30:45;;;;;;;5.13;2.50;;;;;;;;;;5096360;28;20023;-71
2021/04/07 01:33:17;;;;;;;3.55;2.25;;;;;;;;;;5096804;28;20019;-72
2021/04/07 01:35:43;;;;;;;4.20;2.55;;;;;;;;;;5095682;28;20020;-70
2021/04/07 01:38:09;;;;;;;5.05;2.30;;;;;;;;;;5095620;28;20016;-76
2021/04/07 01:40:36;;;;;;;7.55;3.30;;;;;;;;;;5077597;28;20042;-73
2021/04/07 01:43:03;;;;;;;6.57;2.90;;;;;;;;;;5077719;28;20016;-73
2021/04/07 01:45:29;;;;;;;6.35;2.33;;;;;;;;;;5095166;28;20525;-75
2021/04/07 01:47:56;;;;;;;4.47;2.78;;;;;;;;;;5077478;28;20032;-72
2021/04/07 01:50:22;;;;;;;4.87;2.87;;;;;;;;;;5095400;28;20514;-72
2021/04/07 01:52:48;;;;;;;5.63;2.45;;;;;;;;;;5095291;28;20055;-76
2021/04/07 01:55:14;;;;;;;4.95;2.00;;;;;;;;;;5078300;28;20439;-73
2021/04/07 01:57:40;;;;;;;4.30;2.15;;;;;;;;;;5077321;28;20491;-72
2021/04/07 02:00:08;;;;;;;2.20;1.70;;;;;;;;;;5095128;28;20027;-72
2021/04/07 02:02:34;;;;;;;4.22;2.08;;;;;;;;;;5095100;28;20095;-75
2021/04/07 02:05:00;;;;;;;9.55;2.72;;;;;;;;;;5095375;28;20016;-71
2021/04/07 02:07:27;;;;;;;5.07;2.55;;;;;;;;;;5076747;28;20032;-70
2021/04/07 02:09:53;;;;;;;5.55;2.10;;;;;;;;;;5095294;28;20023;-72
2021/04/07 02:12:19;;;;;;;4.18;1.65;;;;;;;;;;5094342;28;20015;-72
2021/04/07 02:14:45;;;;;;;3.30;2.63;;;;;;;;;;5094827;28;20023;-69
2021/04/07 02:17:11;;;;;;;7.63;2.38;;;;;;;;;;5095078;28;20467;-71
2021/04/07 02:19:37;;;;;;;4.10;2.60;;;;;;;;;;5094516;28;20471;-71
2021/04/07 02:22:17;;;;;;;6.80;2.50;;;;;;;;;;5095068;28;20044;-71
2021/04/07 02:24:44;;;;;;;4.43;2.70;;;;;;;;;;5077092;28;20115;-69
2021/04/07 02:27:20;;;;;;;7.63;4.05;;;;;;;;;;5094576;28;20114;-71
2021/04/07 02:29:48;;;;;;;6.38;3.22;;;;;;;;;;5076678;28;20077;-73
2021/04/07 02:32:14;;;;;;;10.90;2.85;;;;;;;;;;5095123;28;20026;-73
2021/04/07 02:34:42;;;;;;;3.53;2.50;;;;;;;;;;5076327;28;20218;-71
2021/04/07 02:37:09;;;;;;;6.90;3.70;;;;;;;;;;5094484;28;20062;-72
2021/04/07 02:39:35;;;;;;;5.82;2.90;;;;;;;;;;5094777;28;20016;-71
2021/04/07 02:42:02;;;;;;;7.32;3.75;;;;;;;;;;5094094;28;20024;-74
2021/04/07 02:44:28;;;;;;;5.40;2.75;;;;;;;;;;5076441;28;20045;-70
2021/04/07 02:46:54;;;;;;;5.88;3.33;;;;;;;;;;5076757;28;20052;-70
2021/04/07 02:49:20;;;;;;;4.10;2.70;;;;;;;;;;5076040;28;20017;-73
2021/04/07 02:51:46;;;;;;;4.82;2.83;;;;;;;;;;5076418;28;20353;-71
2021/04/07 02:54:13;;;;;;;4.25;3.55;;;;;;;;;;5075995;28;20012;-73
2021/04/07 02:56:39;;;;;;;10.65;3.63;;;;;;;;;;5076217;28;20035;-72
2021/04/07 02:59:05;;;;;;;6.95;3.13;;;;;;;;;;5076261;28;20012;-71
2021/04/07 03:01:31;;;;;;;8.65;3.40;;;;;;;;;;5075884;28;20103;-72
2021/04/07 03:03:57;;;;;;;6.40;2.88;;;;;;;;;;5076175;28;20016;-73
2021/04/07 03:06:23;;;;;;;5.35;3.25;;;;;;;;;;5094373;28;20024;-71
2021/04/07 03:08:50;;;;;;;6.50;3.05;;;;;;;;;;5093623;28;20016;-71
2021/04/07 03:11:16;;;;;;;8.25;3.35;;;;;;;;;;5076639;28;20130;-72
2021/04/07 03:13:42;;;;;;;6.93;3.97;;;;;;;;;;5093839;28;20016;-72
2021/04/07 03:16:08;;;;;;;6.68;3.60;;;;;;;;;;5075636;28;20024;-71
2021/04/07 03:18:34;;;;;;;10.30;5.63;;;;;;;;;;5076002;28;20036;-71
2021/04/07 03:21:00;;;;;;;11.35;6.60;;;;;;;;;;5093882;28;20214;-70
2021/04/07 03:23:27;;;;;;;14.57;7.28;;;;;;;;;;5075422;28;20016;-73
2021/04/07 03:25:53;;;;;;;16.42;8.18;;;;;;;;;;5075795;28;20020;-74
2021/04/07 03:28:19;;;;;;;18.92;9.43;;;;;;;;;;5076324;28;20359;-72
2021/04/07 03:30:51;;;;;;;23.92;9.38;;;;;;;;;;5084952;28;20012;-71
2021/04/07 03:33:22;;;;;;;18.58;8.10;;;;;;;;;;5106496;28;20026;-70
2021/04/07 03:35:49;;;;;;;23.35;10.13;;;;;;;;;;5088651;28;20015;-72
2021/04/07 03:38:15;;;;;;;24.27;10.63;;;;;;;;;;5084547;28;20477;-72
2021/04/07 03:40:42;;;;;;;24.90;9.25;;;;;;;;;;5098750;28;20090;-71
2021/04/07 03:43:09;;;;;;;22.58;10.43;;;;;;;;;;5082003;28;20012;-72
2021/04/07 03:45:36;;;;;;;20.40;10.65;;;;;;;;;;5102150;28;20027;-72
2021/04/07 03:48:02;;;;;;;19.67;9.15;;;;;;;;;;5098610;28;20103;-71
2021/04/07 03:50:28;;;;;;;21.50;8.30;;;;;;;;;;5082586;28;20460;-71
2021/04/07 03:52:54;;;;;;;14.60;6.72;;;;;;;;;;5102961;28;20027;-72
2021/04/07 03:55:20;;;;;;;13.98;6.75;;;;;;;;;;5102073;28;20031;-72
2021/04/07 03:57:47;;;;;;;12.75;6.43;;;;;;;;;;5084425;28;20460;-70
2021/04/07 04:00:13;;;;;;;12.98;7.88;;;;;;;;;;5101113;28;20046;-71
2021/04/07 04:02:39;;;;;;;11.88;7.90;;;;;;;;;;5106009;28;20016;-71
2021/04/07 04:05:06;;;;;;;13.30;7.78;;;;;;;;;;5093512;28;20024;-73
2021/04/07 04:07:32;;;;;;;9.40;5.22;;;;;;;;;;5093781;28;20027;-72
2021/04/07 04:09:58;;;;;;;12.82;6.93;;;;;;;;;;5112017;28;20027;-72
2021/04/07 04:12:24;;;;;;;8.85;4.95;;;;;;;;;;5111712;28;20041;-71
2021/04/07 04:14:50;;;;;;;11.15;6.38;;;;;;;;;;5112279;28;20016;-71
2021/04/07 04:17:17;;;;;;;13.52;6.05;;;;;;;;;;5094171;28;20023;-71
2021/04/07 04:19:43;;;;;;;12.48;6.70;;;;;;;;;;5112038;28;20020;-71
2021/04/07 04:22:09;;;;;;;13.82;7.25;;;;;;;;;;5095113;28;20043;-70
2021/04/07 04:24:35;;;;;;;13.63;7.57;;;;;;;;;;5113886;28;20456;-72
2021/04/07 04:27:01;;;;;;;15.32;7.75;;;;;;;;;;5095242;28;20032;-70
2021/04/07 04:29:27;;;;;;;16.52;7.30;;;;;;;;;;5113798;28;20452;-74
2021/04/07 04:31:53;;;;;;;10.63;6.93;;;;;;;;;;5113456;28;20099;-71
2021/04/07 04:34:19;;;;;;;15.35;7.82;;;;;;;;;;5113458;28;20506;-70
2021/04/07 04:36:45;;;;;;;13.57;7.57;;;;;;;;;;5115928;28;20020;-71
2021/04/07 04:39:12;;;;;;;18.25;9.25;;;;;;;;;;5098826;28;20012;-69
2021/04/07 04:41:38;;;;;;;16.65;9.68;;;;;;;;;;5099519;28;20019;-70
2021/04/07 04:44:04;;;;;;;18.98;10.00;;;;;;;;;;5117881;28;20042;-71
2021/04/07 04:46:30;;;;;;;21.17;10.45;;;;;;;;;;5098560;28;20467;-71
2021/04/07 04:48:56;;;;;;;19.85;11.90;;;;;;;;;;5098950;28;20016;-68
2021/04/07 04:51:22;;;;;;;21.52;11.30;;;;;;;;;;5098952;28;20359;-70
2021/04/07 04:53:48;;;;;;;25.05;13.10;;;;;;;;;;5098531;28;20020;-71
2021/04/07 04:56:14;;;;;;;35.53;20.95;;;;;;;;;;5116838;28;20019;-69
2021/04/07 04:58:40;;;;;;;26.73;14.73;;;;;;;;;;5116806;28;20468;-71
2021/04/07 05:01:07;;;;;;;34.78;19.67;;;;;;;;;;5116724;28;20016;-70
2021/04/07 05:03:33;;;;;;;32.33;17.73;;;;;;;;;;5098837;28;20360;-74
2021/04/07 05:05:59;;;;;;;30.95;18.23;;;;;;;;;;5098530;28;20016;-71
2021/04/07 05:08:25;;;;;;;35.10;18.10;;;;;;;;;;5116282;28;20020;-70
2021/04/07 05:10:51;;;;;;;31.58;16.42;;;;;;;;;;5098595;28;20401;-70
2021/04/07 05:13:17;;;;;;;28.58;15.40;;;;;;;;;;5116506;28;20012;-71
2021/04/07 05:15:43;;;;;;;24.23;15.15;;;;;;;;;;5098188;28;20467;-71
2021/04/07 05:18:13;;;;;;;20.08;13.38;;;;;;;;;;5116386;28;20371;-71
2021/04/07 05:20:40;;;;;;;23.58;14.10;;;;;;;;;;5098013;28;20047;-70
2021/04/07 05:23:06;;;;;;;25.90;14.38;;;;;;;;;;5116358;28;20028;-71
2021/04/07 05:25:32;;;;;;;31.90;15.55;;;;;;;;;;5117279;28;20499;-69
2021/04/07 05:27:58;;;;;;;40.03;17.63;;;;;;;;;;5098665;28;20057;-72
2021/04/07 05:30:24;;;;;;;39.88;19.90;;;;;;;;;;5097838;28;20015;-70
2021/04/07 05:32:51;;;;;;;26.75;15.95;;;;;;;;;;5116414;28;20180;-68
2021/04/07 05:35:17;;;;;;;29.15;15.10;;;;;;;;;;5116035;28;20015;-68
2021/04/07 05:37:43;;;;;;;26.40;15.10;;;;;;;;;;5097991;28;20020;-69
2021/04/07 05:40:09;;;;;;;26.33;14.43;;;;;;;;;;5116607;28;20012;-69
2021/04/07 05:42:35;;;;;;;24.40;13.32;;;;;;;;;;5116000;28;20026;-73
2021/04/07 05:45:01;;;;;;;31.83;16.10;;;;;;;;;;5116243;28;20099;-70
2021/04/07 05:47:27;;;;;;;28.48;15.32;;;;;;;;;;5097479;28;20027;-67
2021/04/07 05:49:53;;;;;;;34.30;17.52;;;;;;;;;;5116195;28;20027;-68
2021/04/07 05:52:20;;;;;;;40.47;20.20;;;;;;;;;;5116277;28;20352;-67
2021/04/07 05:54:46;;;;;;;39.67;18.95;;;;;;;;;;5115992;28;20027;-70
2021/04/07 05:57:12;;;;;;;37.20;18.35;;;;;;;;;;5097336;28;20026;-68
2021/04/07 05:59:38;;;;;;;25.52;14.50;;;;;;;;;;5116681;28;20095;-69
2021/04/07 06:02:04;;;;;;;20.67;12.80;;;;;;;;;;5115966;28;20091;-69
2021/04/07 06:04:30;;;;;;;25.48;13.10;;;;;;;;;;5115670;28;20022;-69
2021/04/07 06:06:56;;;;;;;16.77;9.63;;;;;;;;;;5116794;28;20028;-69
2021/04/07 06:09:22;;;;;;;17.48;9.20;;;;;;;;;;5099955;28;20103;-70
2021/04/07 06:11:48;;;;;;;21.48;12.63;;;;;;;;;;5115062;28;20416;-70
2021/04/07 06:14:17;;;;;;;21.58;10.65;;;;;;;;;;5115328;28;20072;-70
2021/04/07 06:16:43;;;;;;;14.07;9.13;;;;;;;;;;5115849;28;20347;-69
2021/04/07 06:19:09;;;;;;;19.77;10.88;;;;;;;;;;5097076;28;20020;-70
2021/04/07 06:21:35;;;;;;;18.52;8.55;;;;;;;;;;5096643;28;20073;-70
2021/04/07 06:24:02;;;;;;;16.42;7.47;;;;;;;;;;5115069;28;20455;-69
2021/04/07 06:26:28;;;;;;;18.60;7.13;;;;;;;;;;5114723;28;20123;-72
2021/04/07 06:28:54;;;;;;;11.70;6.75;;;;;;;;;;5097151;28;20111;-72
2021/04/07 06:31:20;;;;;;;11.35;6.72;;;;;;;;;;5096696;28;20422;-71
2021/04/07 06:33:46;;;;;;;11.32;6.13;;;;;;;;;;5096903;28;20110;-72
2021/04/07 06:36:12;;;;;;;8.38;5.20;;;;;;;;;;5096911;28;20059;-71
2021/04/07 06:38:38;;;;;;;11.13;5.00;;;;;;;;;;5096658;28;20359;-71
2021/04/07 06:41:05;;;;;;;12.75;4.68;;;;;;;;;;5096831;28;20026;-72
2021/04/07 06:43:33;;;;;;;10.83;5.30;;;;;;;;;;5097002;28;20023;-71
2021/04/07 06:45:59;;;;;;;10.65;5.60;;;;;;;;;;5114037;28;20232;-72
2021/04/07 06:48:25;;;;;;;10.27;6.38;;;;;;;;;;5103304;28;20012;-68
2021/04/07 06:50:53;;;;;;;10.82;5.82;;;;;;;;;;5085928;28;20437;-69
2021/04/07 06:53:19;;;;;;;9.60;5.38;;;;;;;;;;5102187;28;20024;-69
2021/04/07 06:55:46;;;;;;;7.97;4.90;;;;;;;;;;5103498;28;20016;-69
2021/04/07 06:58:12;;;;;;;10.73;6.15;;;;;;;;;;5103865;28;20262;-69
2021/04/07 07:00:40;;;;;;;17.83;10.32;;;;;;;;;;5089906;28;20351;-71
2021/04/07 07:03:07;;;;;;;11.88;7.20;;;;;;;;;;5096933;28;20347;-69
2021/04/07 07:05:34;;;;;;;21.63;10.25;;;;;;;;;;5096460;28;20026;-70
2021/04/07 07:08:02;;;;;;;72.35;11.35;;;;;;;;;;5114302;28;20032;-71
2021/04/07 07:10:38;;;;;;;24.50;7.93;;;;;;;;;;5096386;28;20016;-71
2021/04/07 07:13:05;;;;;;;8.85;5.40;;;;;;;;;;5096046;28;20023;-70
2021/04/07 07:15:31;;;;;;;10.50;4.53;;;;;;;;;;5114553;28;20024;-70
2021/04/07 07:17:58;;;;;;;13.52;5.68;;;;;;;;;;5096200;28;20023;-71
2021/04/07 07:20:43;;;;;;;16.85;10.02;;;;;;;;;;5113675;28;20424;-70
2021/04/07 07:23:20;;;;;;;10.40;4.78;;;;;;;;;;5114732;28;20011;-71
2021/04/07 07:25:53;;;;;;;15.07;6.97;;;;;;;;;;5114422;28;20024;-71
2021/04/07 07:28:19;;;;;;;14.07;7.88;;;;;;;;;;5095998;28;20024;-71
2021/04/07 07:30:47;;;;;;;11.05;4.75;;;;;;;;;;5114390;28;20019;-70
2021/04/07 07:33:13;;;;;;;11.40;5.25;;;;;;;;;;5114338;28;20374;-71
2021/04/07 07:35:40;;;;;;;10.05;5.93;;;;;;;;;;5095792;28;20051;-70
2021/04/07 07:38:06;;;;;;;12.25;5.72;;;;;;;;;;5096000;28;20375;-70
2021/04/07 07:40:32;;;;;;;13.43;5.82;;;;;;;;;;5114260;28;20043;-70
2021/04/07 07:42:58;;;;;;;15.10;7.32;;;;;;;;;;5114033;28;20077;-71
2021/04/07 07:45:27;;;;;;;13.27;5.63;;;;;;;;;;5114135;28;20016;-69
2021/04/07 07:48:07;;;;;;;11.43;5.78;;;;;;;;;;5095881;28;20506;-70
2021/04/07 07:50:37;;;;;;;9.68;5.80;;;;;;;;;;5114389;28;20023;-73
2021/04/07 07:53:14;;;;;;;10.30;4.43;;;;;;;;;;5095863;28;20019;-70
2021/04/07 07:55:40;;;;;;;8.20;4.80;;;;;;;;;;5113786;28;20019;-69
2021/04/07 07:58:07;;;;;;;9.73;5.18;;;;;;;;;;5095828;28;20322;-69
2021/04/07 08:00:33;;;;;;;9.85;4.32;;;;;;;;;;5095735;28;20012;-69
2021/04/07 08:03:11;;;;;;;7.85;6.03;;;;;;;;;;5113715;28;20020;-68
2021/04/07 08:05:38;;;;;;;10.25;4.70;;;;;;;;;;5095820;28;20018;-69
2021/04/07 08:08:04;;;;;;;9.75;4.75;;;;;;;;;;5114020;28;20015;-70
2021/04/07 08:10:31;;;;;;;5.45;4.15;;;;;;;;;;5113808;28;20042;-70
2021/04/07 08:13:00;;;;;;;4.05;3.33;;;;;;;;;;5117988;28;20012;-75
2021/04/07 08:15:27;;;;;;;9.02;4.78;;;;;;;;;;5117858;28;20055;-74
2021/04/07 08:17:53;;;;;;;8.95;5.00;;;;;;;;;;5099285;28;20023;-75
2021/04/07 08:20:20;;;;;;;3.95;3.05;;;;;;;;;;5117834;28;20039;-76
2021/04/07 08:22:47;;;;;;;4.95;4.07;;;;;;;;;;5118127;28;20068;-76
2021/04/07 08:25:15;;;;;;;11.35;5.63;;;;;;;;;;5099146;28;20064;-74
2021/04/07 08:27:42;;;;;;;7.45;3.92;;;;;;;;;;5099321;28;20036;-76
2021/04/07 08:30:09;;;;;;;9.48;4.22;;;;;;;;;;5098977;28;20023;-76
2021/04/07 08:32:36;;;;;;;7.55;4.70;;;;;;;;;;5099512;28;20396;-68
2021/04/07 08:35:04;;;;;;;8.75;4.70;;;;;;;;;;5098867;28;20099;-72
2021/04/07 08:37:33;;;;;;;8.68;5.15;;;;;;;;;;5098808;28;20034;-72
2021/04/07 08:40:10;;;;;;;14.00;6.30;;;;;;;;;;5117419;28;20015;-72
2021/04/07 08:42:37;;;;;;;25.52;12.98;;;;;;;;;;5099095;28;20511;-72
2021/04/07 08:45:14;;;;;;;35.72;13.40;;;;;;;;;;5098664;28;20062;-67
2021/04/07 08:48:01;;;;;;;8.02;4.65;;;;;;;;;;5098890;28;20035;-73
2021/04/07 08:50:30;;;;;;;6.40;3.42;;;;;;;;;;5117680;28;20008;-71
2021/04/07 08:52:56;;;;;;;4.10;2.85;;;;;;;;;;5116623;28;20084;-74
2021/04/07 08:55:27;;;;;;;11.23;4.80;;;;;;;;;;5098831;28;20015;-74
2021/04/07 08:58:02;;;;;;;10.60;3.25;;;;;;;;;;5116818;28;20016;-74
2021/04/07 09:00:29;;;;;;;12.93;5.07;;;;;;;;;;5098812;28;20016;-73
2021/04/07 09:02:57;;;;;;;20.30;6.65;;;;;;;;;;5098840;28;20118;-74
2021/04/07 09:05:34;;;;;;;13.90;7.70;;;;;;;;;;5098660;28;20096;-74
2021/04/07 09:08:00;;;;;;;10.93;5.22;;;;;;;;;;5098516;28;20055;-73
2021/04/07 09:10:27;;;;;;;11.03;4.90;;;;;;;;;;5098357;28;20451;-74
2021/04/07 09:12:54;;;;;;;7.25;2.45;;;;;;;;;;5098598;28;20415;-74
2021/04/07 09:15:24;;;;;;;6.43;2.50;;;;;;;;;;5116779;28;20114;-73
2021/04/07 09:17:58;;;;;;;2.97;2.53;;;;;;;;;;5098129;28;20475;-74
2021/04/07 09:20:38;;;;;;;5.78;1.90;;;;;;;;;;5116315;28;20043;-72
2021/04/07 09:23:06;;;;;;;18.27;8.90;;;;;;;;;;5097375;28;20011;-73
2021/04/07 09:25:33;;;;;;;9.35;3.63;;;;;;;;;;5098231;28;20502;-74
2021/04/07 09:28:06;;;;;;;3.22;2.30;;;;;;;;;;5098162;28;20367;-71
2021/04/07 09:30:49;;;;;;;4.15;2.75;;;;;;;;;;5097864;28;20012;-72
2021/04/07 09:33:16;;;;;;;4.22;3.00;;;;;;;;;;5098209;28;20058;-73
2021/04/07 09:35:56;;;;;;;6.53;1.88;;;;;;;;;;5116908;28;20503;-73
2021/04/07 09:38:23;;;;;;;2.58;2.22;;;;;;;;;;5097947;28;20553;-72
2021/04/07 09:40:49;;;;;;;6.90;2.45;;;;;;;;;;5116234;28;20012;-72
2021/04/07 09:43:16;;;;;;;3.05;1.60;;;;;;;;;;5116225;28;20480;-72
2021/04/07 09:45:49;;;;;;;10.45;2.47;;;;;;;;;;5097578;28;20031;-72
2021/04/07 09:48:15;;;;;;;5.32;2.55;;;;;;;;;;5116136;28;20028;-71
2021/04/07 09:50:41;;;;;;;3.72;1.45;;;;;;;;;;5097513;28;20394;-73
2021/04/07 09:53:07;;;;;;;2.50;2.10;;;;;;;;;;5098039;28;20437;-72
2021/04/07 09:55:33;;;;;;;10.48;6.78;;;;;;;;;;5097704;28;20046;-73
2021/04/07 09:58:00;;;;;;;9.13;5.00;;;;;;;;;;5097384;28;20104;-73
2021/04/07 10:00:30;;;;;;;2.15;1.95;;;;;;;;;;5097607;28;20020;-73
2021/04/07 10:02:57;;;;;;;7.50;3.08;;;;;;;;;;5097547;28;20055;-72
2021/04/07 10:05:33;;;;;;;8.85;4.35;;;;;;;;;;5115420;28;20043;-73
2021/04/07 10:08:20;;;;;;;5.88;3.88;;;;;;;;;;5115380;28;20472;-72
2021/04/07 10:10:46;;;;;;;4.60;2.10;;;;;;;;;;5116009;28;20082;-72
2021/04/07 10:13:12;;;;;;;9.50;4.90;;;;;;;;;;5097039;28;20069;-72
2021/04/07 10:15:38;;;;;;;6.95;3.03;;;;;;;;;;5115576;28;20016;-72
2021/04/07 10:18:06;;;;;;;8.65;2.97;;;;;;;;;;5097327;28;20023;-72
2021/04/07 10:20:32;;;;;;;;;;;;;;;;;;5115368;28;20065;-72
2021/04/07 10:22:58;;;;;;;9.50;2.42;;;;;;;;;;5097127;28;20407;-70
2021/04/07 10:25:27;;;;;;;2.72;1.92;;;;;;;;;;5115374;28;20015;-71
2021/04/07 10:27:53;;;;;;;3.00;2.20;;;;;;;;;;5096670;28;20499;-70
2021/04/07 10:30:20;;;;;;;10.30;3.63;;;;;;;;;;5115423;28;20452;-71
2021/04/07 10:32:48;;;;;;;7.53;5.15;;;;;;;;;;5096390;28;20050;-70
2021/04/07 10:35:14;;;;;;;;;;;;;;;;;;5096660;28;20020;-69
2021/04/07 10:37:50;;;;;;;6.00;2.63;;;;;;;;;;5096809;28;19948;-66
2021/04/07 10:40:23;;;;;;;3.60;2.00;;;;;;;;;;5096561;28;20026;-71
2021/04/07 10:42:50;;;;;;;5.22;1.98;;;;;;;;;;5096785;28;20022;-70
2021/04/07 10:45:20;;;;;;;3.03;1.33;;;;;;;;;;5096869;28;20016;-70
2021/04/07 10:47:46;;;;;;;6.40;1.63;;;;;;;;;;5114312;28;20026;-68
2021/04/07 10:50:13;;;;;;;4.72;1.40;;;;;;;;;;5114968;28;20038;-71
2021/04/07 10:52:40;;;;;;;3.20;1.85;;;;;;;;;;5096690;28;20102;-71
2021/04/07 10:55:09;;;;;;;2.90;1.35;;;;;;;;;;5096452;28;20042;-72
2021/04/07 10:57:39;;;;;;;3.95;1.92;;;;;;;;;;5096612;28;20058;-71
2021/04/07 11:00:26;;;;;;;6.28;2.45;;;;;;;;;;5114517;28;20064;-73
2021/04/07 11:02:52;;;;;;;11.25;2.97;;;;;;;;;;5096077;28;20028;-72
2021/04/07 11:05:22;;;;;;;8.20;2.22;;;;;;;;;;5114995;28;20085;-72
2021/04/07 11:07:59;;;;;;;7.40;2.53;;;;;;;;;;5114523;28;20051;-71
2021/04/07 11:10:26;;;;;;;6.57;2.83;;;;;;;;;;5096443;28;20055;-71
2021/04/07 11:12:52;;;;;;;4.18;2.17;;;;;;;;;;5096293;28;20076;-72
2021/04/07 11:15:18;;;;;;;5.95;2.40;;;;;;;;;;5087121;28;20016;-71
2021/04/07 11:17:54;;;;;;;1.67;1.40;;;;;;;;;;5085636;28;20430;-71
2021/04/07 11:20:24;;;;;;;4.07;1.60;;;;;;;;;;5085531;28;20458;-72
2021/04/07 11:22:50;;;;;;;2.83;1.17;;;;;;;;;;5103264;28;20023;-74
2021/04/07 11:25:17;;;;;;;3.78;2.15;;;;;;;;;;5084221;28;20008;-72
2021/04/07 11:27:43;;;;;;;8.48;3.50;;;;;;;;;;5102140;28;20012;-72
2021/04/07 11:30:10;;;;;;;5.70;3.45;;;;;;;;;;5110502;28;20068;-72
2021/04/07 11:32:39;;;;;;;62.10;39.45;;;;;;;;;;5096598;28;20011;-71
2021/04/07 11:37:40;;;;;;;8.82;5.72;;;;;;;;;;5100934;28;20038;-71
2021/04/07 11:40:09;;;;;;;1.77;1.58;;;;;;;;;;5084237;28;20042;-72
2021/04/07 11:45:20;;;;;;;4.97;2.90;;;;;;;;;;5103590;28;20127;-71
2021/04/07 11:47:46;;;;;;;6.47;2.65;;;;;;;;;;5108313;28;20044;-71
2021/04/07 11:50:12;;;;;;;9.77;2.88;;;;;;;;;;5087153;28;20107;-69
2021/04/07 11:52:38;;;;;;;7.57;3.75;;;;;;;;;;5089278;28;20129;-69
2021/04/07 11:55:05;;;;;;;8.50;4.25;;;;;;;;;;5106476;28;20073;-69
2021/04/07 11:57:32;;;;;;;9.50;5.57;;;;;;;;;;5087130;28;20304;-70
2021/04/07 11:59:58;;;;;;;5.10;2.25;;;;;;;;;;5089299;28;20007;-69
2021/04/07 12:02:25;;;;;;;6.07;2.58;;;;;;;;;;5106663;28;20008;-69
2021/04/07 12:04:52;;;;;;;9.90;3.60;;;;;;;;;;5087010;28;20521;-69
2021/04/07 12:07:18;;;;;;;;;;;;;;;;;;5089385;28;20016;-71
2021/04/07 12:09:44;;;;;;;5.28;1.90;;;;;;;;;;5088411;28;20385;-70
2021/04/07 12:12:10;;;;;;;6.10;2.88;;;;;;;;;;5086953;28;20019;-70
2021/04/07 12:14:37;;;;;;;7.50;3.00;;;;;;;;;;5104995;28;20034;-70
2021/04/07 12:17:03;;;;;;;7.85;2.80;;;;;;;;;;5088265;28;20015;-70
2021/04/07 12:19:29;;;;;;;6.88;3.58;;;;;;;;;;5106748;28;20422;-70
2021/04/07 12:21:56;;;;;;;2.60;1.52;;;;;;;;;;5104694;28;20039;-70
2021/04/07 12:24:23;;;;;;;8.25;2.55;;;;;;;;;;5088104;28;20018;-70
2021/04/07 12:26:49;;;;;;;7.70;2.33;;;;;;;;;;5088158;28;20024;-70
2021/04/07 12:29:15;;;;;;;4.40;2.50;;;;;;;;;;5104937;28;20022;-70
2021/04/07 12:31:41;;;;;;;8.23;3.58;;;;;;;;;;5087865;28;20080;-71
2021/04/07 12:34:08;;;;;;;4.22;2.63;;;;;;;;;;5088223;28;20016;-71
2021/04/07 12:36:34;;;;;;;5.18;1.35;;;;;;;;;;5104722;28;20016;-71
2021/04/07 12:39:01;;;;;;;12.57;4.88;;;;;;;;;;5088064;28;20039;-70
2021/04/07 12:41:31;;;;;;;8.18;4.47;;;;;;;;;;5105835;28;20042;-69
2021/04/07 12:43:57;;;;;;;16.38;6.05;;;;;;;;;;5104955;28;20165;-69
2021/04/07 12:46:23;;;;;;;10.63;3.17;;;;;;;;;;5100794;28;20459;-71
2021/04/07 12:48:50;;;;;;;8.27;4.35;;;;;;;;;;5078676;28;20031;-70
2021/04/07 12:51:17;;;;;;;;;;;;;;;;;;5097351;28;20531;-70
2021/04/07 12:53:44;;;;;;;18.10;9.18;;;;;;;;;;5097560;28;19900;-70
2021/04/07 12:56:14;;;;;;;11.23;5.18;;;;;;;;;;5097385;28;20363;-71
2021/04/07 12:58:41;;;;;;;8.23;2.67;;;;;;;;;;5096613;28;20405;-70
2021/04/07 13:01:07;;;;;;;7.95;2.38;;;;;;;;;;5078219;28;20031;-70
2021/04/07 13:03:33;;;;;;;6.93;3.40;;;;;;;;;;5096643;28;20016;-69
2021/04/07 13:05:59;;;;;;;15.45;8.07;;;;;;;;;;5096350;28;20341;-69
2021/04/07 13:08:25;;;;;;;9.95;4.38;;;;;;;;;;5096202;28;20067;-70
2021/04/07 13:10:52;;;;;;;9.68;3.60;;;;;;;;;;5097034;28;20478;-70
2021/04/07 13:13:18;;;;;;;10.18;2.70;;;;;;;;;;5096534;28;20022;-70
2021/04/07 13:15:44;;;;;;;8.98;2.90;;;;;;;;;;5097598;28;20012;-70
2021/04/07 13:18:10;;;;;;;13.07;4.85;;;;;;;;;;5096354;28;20023;-71
2021/04/07 13:20:36;;;;;;;4.90;2.42;;;;;;;;;;5096132;28;20495;-70
2021/04/07 13:23:02;;;;;;;3.97;2.40;;;;;;;;;;5094206;28;20042;-73
2021/04/07 13:25:29;;;;;;;6.45;3.10;;;;;;;;;;5076613;28;20429;-73
2021/04/07 13:27:55;;;;;;;8.65;2.13;;;;;;;;;;5075811;28;20510;-74
2021/04/07 13:30:22;;;;;;;10.50;2.45;;;;;;;;;;5076879;28;20016;-74
2021/04/07 13:43:08;;;;;;;4.78;2.10;;;;;;;;;;5094740;28;20470;-74
2021/04/07 13:45:34;;;;;;;8.13;3.13;;;;;;;;;;5076966;28;20114;-74
2021/04/07 13:48:14;;;;;;;10.38;5.22;;;;;;;;;;5076359;28;20105;-73
2021/04/07 13:50:40;;;;;;;16.17;6.40;;;;;;;;;;5094597;28;20013;-77
2021/04/07 13:53:06;;;;;;;3.13;1.40;;;;;;;;;;5095002;28;20046;-73
2021/04/07 13:55:43;;;;;;;6.75;2.85;;;;;;;;;;5094379;28;20475;-76
2021/04/07 13:58:09;;;;;;;7.43;1.38;;;;;;;;;;5076884;28;20035;-73
2021/04/07 14:00:35;;;;;;;8.02;2.60;;;;;;;;;;5076806;28;20460;-74
2021/04/07 14:03:02;;;;;;;6.25;3.20;;;;;;;;;;5075570;28;20055;-72
2021/04/07 14:05:28;;;;;;;9.80;2.90;;;;;;;;;;5088718;28;20035;-72
2021/04/07 14:07:56;;;;;;;5.63;2.78;;;;;;;;;;5096803;28;20110;-73
2021/04/07 14:10:22;;;;;;;3.78;1.48;;;;;;;;;;5095556;28;20023;-74
2021/04/07 14:12:58;;;;;;;7.35;2.70;;;;;;;;;;5115250;28;20012;-74
2021/04/07 14:15:24;;;;;;;8.45;4.57;;;;;;;;;;5096831;28;20399;-74
2021/04/07 14:17:51;;;;;;;9.68;5.10;;;;;;;;;;5113682;28;20024;-74
2021/04/07 14:20:17;;;;;;;4.20;2.17;;;;;;;;;;5092912;28;20051;-74
2021/04/07 14:22:44;;;;;;;2.20;1.70;;;;;;;;;;5093098;28;20479;-72
2021/04/07 14:25:12;;;;;;;8.55;4.38;;;;;;;;;;5091826;28;20026;-73
2021/04/07 14:27:39;;;;;;;11.38;4.45;;;;;;;;;;5094446;28;20073;-74
2021/04/07 14:30:06;;;;;;;11.68;4.72;;;;;;;;;;5094389;28;20020;-74
2021/04/07 14:32:32;;;;;;;8.13;3.53;;;;;;;;;;5093070;28;20016;-74
2021/04/07 14:34:58;;;;;;;17.45;6.68;;;;;;;;;;5092867;28;20024;-73
2021/04/07 14:37:24;;;;;;;15.20;5.00;;;;;;;;;;5092893;28;20103;-74
2021/04/07 14:39:51;;;;;;;7.97;3.60;;;;;;;;;;5091813;28;20020;-74
2021/04/07 14:42:17;;;;;;;14.53;6.67;;;;;;;;;;5092829;28;20379;-73
2021/04/07 14:44:43;;;;;;;15.40;4.18;;;;;;;;;;5092242;28;20452;-75
2021/04/07 14:47:09;;;;;;;20.02;8.57;;;;;;;;;;5091510;28;20024;-65
2021/04/07 14:49:36;;;;;;;15.55;4.65;;;;;;;;;;5093527;28;20028;-73
2021/04/07 14:52:04;;;;;;;9.05;4.00;;;;;;;;;;5092472;28;20448;-72